sensor_id;sensor_type;location;lat;lon;timestamp;P1;durP1;ratioP1;P2;durP2;ratioP2
58468;SDS011;44257;44.804;10.220;2022-11-15T00:01:54;8.90;;;5.57;;
58468;SDS011;44257;44.804;10.220;2022-11-15T00:04:38;9.30;;;5.25;;
58468;SDS011;44257;44.804;10.220;2022-11-15T00:07:22;7.00;;;4.20;;
58468;SDS011;44257;44.804;10.220;2022-11-15T00:10:06;9.80;;;4.90;;
58468;SDS011;44257;44.804;10.220;2022-11-15T00:12:51;9.43;;;5.60;;
58468;SDS011;44257;44.804;10.220;2022-11-15T00:15:38;11.43;;;4.50;;
58468;SDS011;44257;44.804;10.220;2022-11-15T00:18:24;10.32;;;4.97;;
58468;SDS011;44257;44.804;10.220;2022-11-15T00:21:10;9.38;;;6.03;;
58468;SDS011;44257;44.804;10.220;2022-11-15T00:23:55;6.75;;;3.72;;
58468;SDS011;44257;44.804;10.220;2022-11-15T00:26:40;10.35;;;4.70;;
58468;SDS011;44257;44.804;10.220;2022-11-15T00:29:24;7.32;;;5.35;;
58468;SDS011;44257;44.804;10.220;2022-11-15T00:32:10;8.30;;;5.25;;
58468;SDS011;44257;44.804;10.220;2022-11-15T00:34:54;7.65;;;3.80;;
58468;SDS011;44257;44.804;10.220;2022-11-15T00:37:38;8.98;;;4.20;;
58468;SDS011;44257;44.804;10.220;2022-11-15T00:40:23;7.57;;;4.18;;
58468;SDS011;44257;44.804;10.220;2022-11-15T00:43:08;10.57;;;3.67;;
58468;SDS011;44257;44.804;10.220;2022-11-15T00:45:53;10.65;;;3.80;;
58468;SDS011;44257;44.804;10.220;2022-11-15T00:48:38;8.48;;;5.60;;
58468;SDS011;44257;44.804;10.220;2022-11-15T00:51:22;7.90;;;4.28;;
58468;SDS011;44257;44.804;10.220;2022-11-15T00:54:06;8.25;;;4.03;;
58468;SDS011;44257;44.804;10.220;2022-11-15T00:56:50;11.18;;;4.88;;
58468;SDS011;44257;44.804;10.220;2022-11-15T00:59:34;9.07;;;4.30;;
58468;SDS011;44257;44.804;10.220;2022-11-15T01:02:18;6.95;;;3.92;;
58468;SDS011;44257;44.804;10.220;2022-11-15T01:05:03;16.77;;;7.05;;
58468;SDS011;44257;44.804;10.220;2022-11-15T01:07:51;9.57;;;4.55;;
58468;SDS011;44257;44.804;10.220;2022-11-15T01:10:36;6.45;;;4.28;;
58468;SDS011;44257;44.804;10.220;2022-11-15T01:13:20;8.15;;;3.63;;
58468;SDS011;44257;44.804;10.220;2022-11-15T01:16:06;6.10;;;3.38;;
58468;SDS011;44257;44.804;10.220;2022-11-15T01:19:00;9.07;;;3.80;;
58468;SDS011;44257;44.804;10.220;2022-11-15T01:21:45;12.60;;;4.70;;
58468;SDS011;44257;44.804;10.220;2022-11-15T01:24:32;7.07;;;4.35;;
58468;SDS011;44257;44.804;10.220;2022-11-15T01:27:16;6.75;;;3.83;;
58468;SDS011;44257;44.804;10.220;2022-11-15T01:30:01;7.63;;;4.70;;
58468;SDS011;44257;44.804;10.220;2022-11-15T01:32:45;7.30;;;4.93;;
58468;SDS011;44257;44.804;10.220;2022-11-15T01:35:30;7.95;;;4.15;;
58468;SDS011;44257;44.804;10.220;2022-11-15T01:38:15;10.73;;;5.18;;
58468;SDS011;44257;44.804;10.220;2022-11-15T01:41:00;9.18;;;4.35;;
58468;SDS011;44257;44.804;10.220;2022-11-15T01:43:46;7.13;;;3.08;;
58468;SDS011;44257;44.804;10.220;2022-11-15T01:46:33;7.30;;;3.22;;
58468;SDS011;44257;44.804;10.220;2022-11-15T01:49:19;7.93;;;4.15;;
58468;SDS011;44257;44.804;10.220;2022-11-15T01:52:07;5.95;;;3.85;;
58468;SDS011;44257;44.804;10.220;2022-11-15T01:55:02;9.13;;;5.22;;
58468;SDS011;44257;44.804;10.220;2022-11-15T01:57:58;7.45;;;4.70;;
58468;SDS011;44257;44.804;10.220;2022-11-15T02:00:45;6.68;;;4.38;;
58468;SDS011;44257;44.804;10.220;2022-11-15T02:03:40;4.95;;;3.47;;
58468;SDS011;44257;44.804;10.220;2022-11-15T02:06:36;7.38;;;4.10;;
58468;SDS011;44257;44.804;10.220;2022-11-15T02:09:22;6.63;;;3.45;;
58468;SDS011;44257;44.804;10.220;2022-11-15T02:12:07;7.43;;;3.30;;
58468;SDS011;44257;44.804;10.220;2022-11-15T02:14:54;8.50;;;4.22;;
58468;SDS011;44257;44.804;10.220;2022-11-15T02:20:58;9.80;;;4.70;;
58468;SDS011;44257;44.804;10.220;2022-11-15T02:24:08;10.30;;;4.05;;
58468;SDS011;44257;44.804;10.220;2022-11-15T02:27:19;9.82;;;4.95;;
58468;SDS011;44257;44.804;10.220;2022-11-15T02:36:33;4.47;;;2.85;;
58468;SDS011;44257;44.804;10.220;2022-11-15T02:42:43;7.88;;;4.25;;
58468;SDS011;44257;44.804;10.220;2022-11-15T02:45:54;6.63;;;4.57;;
58468;SDS011;44257;44.804;10.220;2022-11-15T02:48:47;8.68;;;3.92;;
58468;SDS011;44257;44.804;10.220;2022-11-15T02:51:32;6.10;;;4.93;;
58468;SDS011;44257;44.804;10.220;2022-11-15T02:54:19;9.68;;;4.45;;
58468;SDS011;44257;44.804;10.220;2022-11-15T02:57:07;8.02;;;4.40;;
58468;SDS011;44257;44.804;10.220;2022-11-15T03:03:04;11.52;;;4.03;;
58468;SDS011;44257;44.804;10.220;2022-11-15T03:06:26;9.23;;;5.30;;
58468;SDS011;44257;44.804;10.220;2022-11-15T03:09:27;7.90;;;4.40;;
58468;SDS011;44257;44.804;10.220;2022-11-15T03:12:28;11.13;;;4.32;;
58468;SDS011;44257;44.804;10.220;2022-11-15T03:15:23;6.88;;;4.13;;
58468;SDS011;44257;44.804;10.220;2022-11-15T03:18:19;8.85;;;4.70;;
58468;SDS011;44257;44.804;10.220;2022-11-15T03:21:06;11.07;;;4.97;;
58468;SDS011;44257;44.804;10.220;2022-11-15T03:23:53;9.20;;;5.05;;
58468;SDS011;44257;44.804;10.220;2022-11-15T03:26:42;7.70;;;3.60;;
58468;SDS011;44257;44.804;10.220;2022-11-15T03:29:34;7.53;;;3.70;;
58468;SDS011;44257;44.804;10.220;2022-11-15T03:32:23;11.00;;;5.20;;
58468;SDS011;44257;44.804;10.220;2022-11-15T03:35:12;9.60;;;4.53;;
58468;SDS011;44257;44.804;10.220;2022-11-15T03:38:07;8.20;;;3.50;;
58468;SDS011;44257;44.804;10.220;2022-11-15T03:41:13;7.78;;;3.60;;
58468;SDS011;44257;44.804;10.220;2022-11-15T03:50:18;11.75;;;4.38;;
58468;SDS011;44257;44.804;10.220;2022-11-15T03:53:04;6.57;;;4.45;;
58468;SDS011;44257;44.804;10.220;2022-11-15T03:55:48;8.40;;;4.57;;
58468;SDS011;44257;44.804;10.220;2022-11-15T03:58:33;14.30;;;7.32;;
58468;SDS011;44257;44.804;10.220;2022-11-15T04:01:18;10.93;;;6.90;;
58468;SDS011;44257;44.804;10.220;2022-11-15T04:04:02;9.38;;;4.88;;
58468;SDS011;44257;44.804;10.220;2022-11-15T04:06:47;9.95;;;4.00;;
58468;SDS011;44257;44.804;10.220;2022-11-15T04:09:31;9.82;;;4.95;;
58468;SDS011;44257;44.804;10.220;2022-11-15T04:12:16;9.77;;;4.60;;
58468;SDS011;44257;44.804;10.220;2022-11-15T04:15:15;5.03;;;2.53;;
58468;SDS011;44257;44.804;10.220;2022-11-15T04:18:01;7.95;;;3.08;;
58468;SDS011;44257;44.804;10.220;2022-11-15T04:20:46;5.43;;;3.20;;
58468;SDS011;44257;44.804;10.220;2022-11-15T04:23:49;9.27;;;3.90;;
58468;SDS011;44257;44.804;10.220;2022-11-15T04:26:52;6.25;;;3.10;;
58468;SDS011;44257;44.804;10.220;2022-11-15T04:29:37;7.32;;;4.72;;
58468;SDS011;44257;44.804;10.220;2022-11-15T04:32:21;7.05;;;3.60;;
58468;SDS011;44257;44.804;10.220;2022-11-15T04:35:06;6.85;;;3.13;;
58468;SDS011;44257;44.804;10.220;2022-11-15T04:37:50;8.77;;;4.25;;
58468;SDS011;44257;44.804;10.220;2022-11-15T04:40:35;7.30;;;3.58;;
58468;SDS011;44257;44.804;10.220;2022-11-15T04:43:21;7.30;;;3.30;;
58468;SDS011;44257;44.804;10.220;2022-11-15T04:46:06;7.07;;;3.85;;
58468;SDS011;44257;44.804;10.220;2022-11-15T04:48:51;8.55;;;3.47;;
58468;SDS011;44257;44.804;10.220;2022-11-15T04:51:35;8.23;;;4.47;;
58468;SDS011;44257;44.804;10.220;2022-11-15T04:54:21;6.85;;;4.07;;
58468;SDS011;44257;44.804;10.220;2022-11-15T04:57:05;8.13;;;4.38;;
58468;SDS011;44257;44.804;10.220;2022-11-15T04:59:50;6.75;;;3.15;;
58468;SDS011;44257;44.804;10.220;2022-11-15T05:02:34;7.25;;;3.55;;
58468;SDS011;44257;44.804;10.220;2022-11-15T05:05:38;8.13;;;3.97;;
58468;SDS011;44257;44.804;10.220;2022-11-15T05:08:23;7.65;;;4.10;;
58468;SDS011;44257;44.804;10.220;2022-11-15T05:11:08;9.05;;;4.82;;
58468;SDS011;44257;44.804;10.220;2022-11-15T05:13:52;7.28;;;3.83;;
58468;SDS011;44257;44.804;10.220;2022-11-15T05:16:38;7.90;;;4.20;;
58468;SDS011;44257;44.804;10.220;2022-11-15T05:19:23;8.00;;;3.58;;
58468;SDS011;44257;44.804;10.220;2022-11-15T05:22:07;7.82;;;4.22;;
58468;SDS011;44257;44.804;10.220;2022-11-15T05:24:52;10.13;;;4.93;;
58468;SDS011;44257;44.804;10.220;2022-11-15T05:27:36;9.85;;;4.28;;
58468;SDS011;44257;44.804;10.220;2022-11-15T05:30:21;9.20;;;3.55;;
58468;SDS011;44257;44.804;10.220;2022-11-15T05:33:06;8.80;;;4.43;;
58468;SDS011;44257;44.804;10.220;2022-11-15T05:35:53;9.05;;;4.75;;
58468;SDS011;44257;44.804;10.220;2022-11-15T05:38:41;7.32;;;4.13;;
58468;SDS011;44257;44.804;10.220;2022-11-15T05:41:36;7.55;;;4.47;;
58468;SDS011;44257;44.804;10.220;2022-11-15T05:44:24;6.88;;;3.88;;
58468;SDS011;44257;44.804;10.220;2022-11-15T05:47:10;7.05;;;4.22;;
58468;SDS011;44257;44.804;10.220;2022-11-15T05:49:57;7.35;;;3.00;;
58468;SDS011;44257;44.804;10.220;2022-11-15T05:52:42;6.38;;;3.45;;
58468;SDS011;44257;44.804;10.220;2022-11-15T05:55:28;7.97;;;4.07;;
58468;SDS011;44257;44.804;10.220;2022-11-15T05:58:12;8.43;;;3.28;;
58468;SDS011;44257;44.804;10.220;2022-11-15T06:00:57;8.13;;;4.03;;
58468;SDS011;44257;44.804;10.220;2022-11-15T06:03:42;6.35;;;3.17;;
58468;SDS011;44257;44.804;10.220;2022-11-15T06:06:27;7.20;;;3.97;;
58468;SDS011;44257;44.804;10.220;2022-11-15T06:09:12;9.73;;;3.22;;
58468;SDS011;44257;44.804;10.220;2022-11-15T06:11:56;11.13;;;4.22;;
58468;SDS011;44257;44.804;10.220;2022-11-15T06:14:41;8.77;;;3.22;;
58468;SDS011;44257;44.804;10.220;2022-11-15T06:17:25;8.25;;;3.58;;
58468;SDS011;44257;44.804;10.220;2022-11-15T06:20:10;7.90;;;4.13;;
58468;SDS011;44257;44.804;10.220;2022-11-15T06:23:02;9.93;;;3.85;;
58468;SDS011;44257;44.804;10.220;2022-11-15T06:28:32;7.32;;;3.45;;
58468;SDS011;44257;44.804;10.220;2022-11-15T06:31:16;5.85;;;3.63;;
58468;SDS011;44257;44.804;10.220;2022-11-15T06:34:01;10.40;;;3.88;;
58468;SDS011;44257;44.804;10.220;2022-11-15T06:36:45;9.50;;;3.38;;
58468;SDS011;44257;44.804;10.220;2022-11-15T06:39:30;8.20;;;4.30;;
58468;SDS011;44257;44.804;10.220;2022-11-15T06:42:14;7.55;;;4.05;;
58468;SDS011;44257;44.804;10.220;2022-11-15T06:44:58;10.88;;;4.40;;
58468;SDS011;44257;44.804;10.220;2022-11-15T06:47:46;7.63;;;2.95;;
58468;SDS011;44257;44.804;10.220;2022-11-15T06:50:30;9.60;;;4.32;;
58468;SDS011;44257;44.804;10.220;2022-11-15T06:53:15;8.85;;;3.47;;
58468;SDS011;44257;44.804;10.220;2022-11-15T06:56:01;5.05;;;3.38;;
58468;SDS011;44257;44.804;10.220;2022-11-15T06:58:49;6.43;;;3.25;;
58468;SDS011;44257;44.804;10.220;2022-11-15T07:01:33;10.35;;;5.30;;
58468;SDS011;44257;44.804;10.220;2022-11-15T07:04:18;6.78;;;3.35;;
58468;SDS011;44257;44.804;10.220;2022-11-15T07:07:02;6.97;;;2.80;;
58468;SDS011;44257;44.804;10.220;2022-11-15T07:09:47;8.30;;;3.67;;
58468;SDS011;44257;44.804;10.220;2022-11-15T07:12:32;7.35;;;3.33;;
58468;SDS011;44257;44.804;10.220;2022-11-15T07:15:17;9.57;;;4.82;;
58468;SDS011;44257;44.804;10.220;2022-11-15T07:18:03;6.25;;;2.95;;
58468;SDS011;44257;44.804;10.220;2022-11-15T07:20:48;8.20;;;3.03;;
58468;SDS011;44257;44.804;10.220;2022-11-15T07:23:32;6.47;;;3.53;;
58468;SDS011;44257;44.804;10.220;2022-11-15T07:26:19;8.55;;;4.35;;
58468;SDS011;44257;44.804;10.220;2022-11-15T07:29:04;11.70;;;4.50;;
58468;SDS011;44257;44.804;10.220;2022-11-15T07:31:50;6.38;;;3.42;;
58468;SDS011;44257;44.804;10.220;2022-11-15T07:34:34;8.00;;;3.53;;
58468;SDS011;44257;44.804;10.220;2022-11-15T07:37:18;12.75;;;4.97;;
58468;SDS011;44257;44.804;10.220;2022-11-15T07:40:03;7.55;;;3.45;;
58468;SDS011;44257;44.804;10.220;2022-11-15T07:42:47;7.18;;;3.22;;
58468;SDS011;44257;44.804;10.220;2022-11-15T07:45:44;6.88;;;3.53;;
58468;SDS011;44257;44.804;10.220;2022-11-15T07:48:30;9.32;;;4.45;;
58468;SDS011;44257;44.804;10.220;2022-11-15T07:51:15;9.20;;;3.88;;
58468;SDS011;44257;44.804;10.220;2022-11-15T07:54:00;5.65;;;3.03;;
58468;SDS011;44257;44.804;10.220;2022-11-15T07:56:46;5.68;;;3.67;;
58468;SDS011;44257;44.804;10.220;2022-11-15T07:59:31;7.55;;;3.78;;
58468;SDS011;44257;44.804;10.220;2022-11-15T08:02:16;10.13;;;4.25;;
58468;SDS011;44257;44.804;10.220;2022-11-15T08:05:01;7.57;;;4.47;;
58468;SDS011;44257;44.804;10.220;2022-11-15T08:07:46;6.13;;;3.28;;
58468;SDS011;44257;44.804;10.220;2022-11-15T08:10:31;9.27;;;3.65;;
58468;SDS011;44257;44.804;10.220;2022-11-15T08:13:16;5.93;;;3.67;;
58468;SDS011;44257;44.804;10.220;2022-11-15T08:16:01;9.50;;;4.93;;
58468;SDS011;44257;44.804;10.220;2022-11-15T08:18:48;7.20;;;3.83;;
58468;SDS011;44257;44.804;10.220;2022-11-15T08:21:33;7.55;;;4.63;;
58468;SDS011;44257;44.804;10.220;2022-11-15T08:24:18;7.90;;;3.22;;
58468;SDS011;44257;44.804;10.220;2022-11-15T08:27:04;10.23;;;4.07;;
58468;SDS011;44257;44.804;10.220;2022-11-15T08:29:48;8.38;;;3.97;;
58468;SDS011;44257;44.804;10.220;2022-11-15T08:32:34;8.48;;;4.53;;
58468;SDS011;44257;44.804;10.220;2022-11-15T08:35:19;33.83;;;16.20;;
58468;SDS011;44257;44.804;10.220;2022-11-15T08:38:04;13.80;;;8.00;;
58468;SDS011;44257;44.804;10.220;2022-11-15T08:40:50;8.18;;;3.75;;
58468;SDS011;44257;44.804;10.220;2022-11-15T08:43:36;9.07;;;4.38;;
58468;SDS011;44257;44.804;10.220;2022-11-15T08:46:21;6.38;;;3.33;;
58468;SDS011;44257;44.804;10.220;2022-11-15T08:49:06;6.22;;;4.35;;
58468;SDS011;44257;44.804;10.220;2022-11-15T08:51:50;9.52;;;4.30;;
58468;SDS011;44257;44.804;10.220;2022-11-15T08:54:35;6.07;;;3.03;;
58468;SDS011;44257;44.804;10.220;2022-11-15T08:57:19;9.52;;;4.57;;
58468;SDS011;44257;44.804;10.220;2022-11-15T09:00:04;7.00;;;3.58;;
58468;SDS011;44257;44.804;10.220;2022-11-15T09:02:49;6.88;;;3.92;;
58468;SDS011;44257;44.804;10.220;2022-11-15T09:05:37;9.65;;;4.68;;
58468;SDS011;44257;44.804;10.220;2022-11-15T09:08:22;7.65;;;4.03;;
58468;SDS011;44257;44.804;10.220;2022-11-15T09:11:08;7.03;;;4.35;;
58468;SDS011;44257;44.804;10.220;2022-11-15T09:13:53;11.07;;;4.60;;
58468;SDS011;44257;44.804;10.220;2022-11-15T09:16:38;8.45;;;3.72;;
58468;SDS011;44257;44.804;10.220;2022-11-15T09:19:23;8.50;;;3.80;;
58468;SDS011;44257;44.804;10.220;2022-11-15T09:22:08;8.95;;;4.90;;
58468;SDS011;44257;44.804;10.220;2022-11-15T09:24:52;12.70;;;4.57;;
58468;SDS011;44257;44.804;10.220;2022-11-15T09:27:36;8.90;;;4.63;;
58468;SDS011;44257;44.804;10.220;2022-11-15T09:30:21;9.43;;;4.93;;
58468;SDS011;44257;44.804;10.220;2022-11-15T09:33:06;10.23;;;3.28;;
58468;SDS011;44257;44.804;10.220;2022-11-15T09:35:59;8.75;;;4.60;;
58468;SDS011;44257;44.804;10.220;2022-11-15T09:38:44;10.07;;;5.60;;
58468;SDS011;44257;44.804;10.220;2022-11-15T09:44:48;8.23;;;4.55;;
58468;SDS011;44257;44.804;10.220;2022-11-15T09:51:08;8.00;;;3.80;;
58468;SDS011;44257;44.804;10.220;2022-11-15T09:53:48;9.02;;;4.43;;
58468;SDS011;44257;44.804;10.220;2022-11-15T09:56:23;10.80;;;4.63;;
58468;SDS011;44257;44.804;10.220;2022-11-15T10:04:04;8.00;;;3.92;;
58468;SDS011;44257;44.804;10.220;2022-11-15T10:06:30;11.85;;;4.55;;
58468;SDS011;44257;44.804;10.220;2022-11-15T10:09:00;12.93;;;5.78;;
58468;SDS011;44257;44.804;10.220;2022-11-15T10:11:34;14.20;;;6.22;;
58468;SDS011;44257;44.804;10.220;2022-11-15T10:14:02;8.63;;;5.60;;
58468;SDS011;44257;44.804;10.220;2022-11-15T10:19:30;8.90;;;4.22;;
58468;SDS011;44257;44.804;10.220;2022-11-15T10:25:06;9.65;;;5.55;;
58468;SDS011;44257;44.804;10.220;2022-11-15T10:28:30;9.15;;;5.95;;
58468;SDS011;44257;44.804;10.220;2022-11-15T10:30:41;11.50;;;6.68;;
58468;SDS011;44257;44.804;10.220;2022-11-15T10:41:18;16.92;;;7.75;;
58468;SDS011;44257;44.804;10.220;2022-11-15T10:43:45;12.45;;;6.90;;
58468;SDS011;44257;44.804;10.220;2022-11-15T10:46:26;12.65;;;8.05;;
58468;SDS011;44257;44.804;10.220;2022-11-15T10:48:52;10.75;;;6.28;;
58468;SDS011;44257;44.804;10.220;2022-11-15T10:51:27;18.45;;;7.80;;
58468;SDS011;44257;44.804;10.220;2022-11-15T10:53:56;11.57;;;6.15;;
58468;SDS011;44257;44.804;10.220;2022-11-15T10:56:25;10.38;;;6.45;;
58468;SDS011;44257;44.804;10.220;2022-11-15T10:58:55;10.30;;;6.10;;
58468;SDS011;44257;44.804;10.220;2022-11-15T11:01:23;9.52;;;5.65;;
58468;SDS011;44257;44.804;10.220;2022-11-15T11:04:02;12.90;;;6.30;;
58468;SDS011;44257;44.804;10.220;2022-11-15T11:06:50;14.25;;;6.93;;
58468;SDS011;44257;44.804;10.220;2022-11-15T11:12:05;13.57;;;6.75;;
58468;SDS011;44257;44.804;10.220;2022-11-15T11:14:35;12.05;;;6.53;;
58468;SDS011;44257;44.804;10.220;2022-11-15T11:24:36;13.13;;;6.90;;
58468;SDS011;44257;44.804;10.220;2022-11-15T11:35:23;12.48;;;8.27;;
58468;SDS011;44257;44.804;10.220;2022-11-15T11:40:42;20.52;;;8.20;;
58468;SDS011;44257;44.804;10.220;2022-11-15T11:45:53;18.63;;;8.55;;
58468;SDS011;44257;44.804;10.220;2022-11-15T11:51:13;19.63;;;7.80;;
58468;SDS011;44257;44.804;10.220;2022-11-15T11:54:09;12.73;;;8.07;;
58468;SDS011;44257;44.804;10.220;2022-11-15T11:57:02;16.98;;;9.55;;
58468;SDS011;44257;44.804;10.220;2022-11-15T11:59:42;17.05;;;9.23;;
58468;SDS011;44257;44.804;10.220;2022-11-15T12:02:18;18.70;;;9.23;;
58468;SDS011;44257;44.804;10.220;2022-11-15T12:05:04;14.93;;;8.60;;
58468;SDS011;44257;44.804;10.220;2022-11-15T12:07:36;14.30;;;7.65;;
58468;SDS011;44257;44.804;10.220;2022-11-15T12:10:11;10.45;;;6.55;;
58468;SDS011;44257;44.804;10.220;2022-11-15T12:15:17;12.18;;;6.88;;
58468;SDS011;44257;44.804;10.220;2022-11-15T12:17:46;16.35;;;7.75;;
58468;SDS011;44257;44.804;10.220;2022-11-15T12:22:47;12.90;;;7.60;;
58468;SDS011;44257;44.804;10.220;2022-11-15T12:33:36;15.57;;;8.05;;
58468;SDS011;44257;44.804;10.220;2022-11-15T12:36:50;16.42;;;8.05;;
58468;SDS011;44257;44.804;10.220;2022-11-15T12:39:04;15.25;;;7.25;;
58468;SDS011;44257;44.804;10.220;2022-11-15T12:41:32;11.93;;;6.60;;
58468;SDS011;44257;44.804;10.220;2022-11-15T12:44:00;15.35;;;8.90;;
58468;SDS011;44257;44.804;10.220;2022-11-15T12:49:03;23.02;;;7.97;;
58468;SDS011;44257;44.804;10.220;2022-11-15T12:55:00;13.88;;;7.85;;
58468;SDS011;44257;44.804;10.220;2022-11-15T13:02:26;10.63;;;4.55;;
58468;SDS011;44257;44.804;10.220;2022-11-15T13:04:54;14.25;;;7.55;;
58468;SDS011;44257;44.804;10.220;2022-11-15T13:12:58;11.68;;;6.57;;
58468;SDS011;44257;44.804;10.220;2022-11-15T13:15:36;19.70;;;9.68;;
58468;SDS011;44257;44.804;10.220;2022-11-15T13:21:00;12.38;;;7.22;;
58468;SDS011;44257;44.804;10.220;2022-11-15T13:23:51;11.68;;;6.43;;
58468;SDS011;44257;44.804;10.220;2022-11-15T13:26:18;12.57;;;5.82;;
58468;SDS011;44257;44.804;10.220;2022-11-15T13:28:46;11.93;;;7.05;;
58468;SDS011;44257;44.804;10.220;2022-11-15T13:33:49;18.45;;;8.40;;
58468;SDS011;44257;44.804;10.220;2022-11-15T13:36:25;8.55;;;4.97;;
58468;SDS011;44257;44.804;10.220;2022-11-15T13:38:55;13.63;;;6.32;;
58468;SDS011;44257;44.804;10.220;2022-11-15T13:41:24;14.68;;;7.65;;
58468;SDS011;44257;44.804;10.220;2022-11-15T13:43:55;12.23;;;5.47;;
58468;SDS011;44257;44.804;10.220;2022-11-15T13:46:28;13.82;;;8.13;;
58468;SDS011;44257;44.804;10.220;2022-11-15T13:48:59;12.85;;;6.18;;
58468;SDS011;44257;44.804;10.220;2022-11-15T13:51:35;13.48;;;7.18;;
58468;SDS011;44257;44.804;10.220;2022-11-15T13:56:39;10.50;;;5.70;;
58468;SDS011;44257;44.804;10.220;2022-11-15T13:59:09;12.40;;;6.38;;
58468;SDS011;44257;44.804;10.220;2022-11-15T14:01:50;12.23;;;6.72;;
58468;SDS011;44257;44.804;10.220;2022-11-15T14:04:18;8.20;;;4.57;;
58468;SDS011;44257;44.804;10.220;2022-11-15T14:06:48;13.65;;;7.13;;
58468;SDS011;44257;44.804;10.220;2022-11-15T14:09:24;9.85;;;5.15;;
58468;SDS011;44257;44.804;10.220;2022-11-15T14:11:59;11.10;;;5.78;;
58468;SDS011;44257;44.804;10.220;2022-11-15T14:14:27;10.73;;;6.30;;
58468;SDS011;44257;44.804;10.220;2022-11-15T14:16:55;8.15;;;5.82;;
58468;SDS011;44257;44.804;10.220;2022-11-15T14:24:42;13.23;;;7.30;;
58468;SDS011;44257;44.804;10.220;2022-11-15T14:29:48;11.70;;;6.57;;
58468;SDS011;44257;44.804;10.220;2022-11-15T14:32:22;12.48;;;6.13;;
58468;SDS011;44257;44.804;10.220;2022-11-15T14:37:24;9.75;;;5.28;;
58468;SDS011;44257;44.804;10.220;2022-11-15T14:39:51;14.55;;;7.15;;
58468;SDS011;44257;44.804;10.220;2022-11-15T14:42:18;12.63;;;6.28;;
58468;SDS011;44257;44.804;10.220;2022-11-15T14:44:45;15.95;;;9.27;;
58468;SDS011;44257;44.804;10.220;2022-11-15T14:47:12;12.27;;;7.43;;
58468;SDS011;44257;44.804;10.220;2022-11-15T14:49:38;11.30;;;6.32;;
58468;SDS011;44257;44.804;10.220;2022-11-15T14:52:09;10.98;;;5.22;;
58468;SDS011;44257;44.804;10.220;2022-11-15T14:54:48;12.02;;;7.80;;
58468;SDS011;44257;44.804;10.220;2022-11-15T14:57:14;11.30;;;7.72;;
58468;SDS011;44257;44.804;10.220;2022-11-15T14:59:40;14.63;;;7.22;;
58468;SDS011;44257;44.804;10.220;2022-11-15T15:02:39;12.45;;;7.15;;
58468;SDS011;44257;44.804;10.220;2022-11-15T15:04:58;13.35;;;7.47;;
58468;SDS011;44257;44.804;10.220;2022-11-15T15:07:26;11.63;;;6.40;;
58468;SDS011;44257;44.804;10.220;2022-11-15T15:09:52;11.50;;;7.38;;
58468;SDS011;44257;44.804;10.220;2022-11-15T15:12:19;14.07;;;5.88;;
58468;SDS011;44257;44.804;10.220;2022-11-15T15:14:46;9.63;;;6.00;;
58468;SDS011;44257;44.804;10.220;2022-11-15T15:17:14;11.98;;;7.63;;
58468;SDS011;44257;44.804;10.220;2022-11-15T15:19:40;11.20;;;6.75;;
58468;SDS011;44257;44.804;10.220;2022-11-15T15:22:09;13.35;;;7.85;;
58468;SDS011;44257;44.804;10.220;2022-11-15T15:24:46;15.38;;;8.07;;
58468;SDS011;44257;44.804;10.220;2022-11-15T15:27:18;15.27;;;7.07;;
58468;SDS011;44257;44.804;10.220;2022-11-15T15:29:44;13.90;;;6.47;;
58468;SDS011;44257;44.804;10.220;2022-11-15T15:32:10;17.25;;;8.55;;
58468;SDS011;44257;44.804;10.220;2022-11-15T15:34:36;15.40;;;5.13;;
58468;SDS011;44257;44.804;10.220;2022-11-15T15:39:51;11.82;;;7.65;;
58468;SDS011;44257;44.804;10.220;2022-11-15T15:42:19;20.98;;;8.57;;
58468;SDS011;44257;44.804;10.220;2022-11-15T15:44:46;13.73;;;7.85;;
58468;SDS011;44257;44.804;10.220;2022-11-15T15:47:17;15.70;;;7.43;;
58468;SDS011;44257;44.804;10.220;2022-11-15T15:49:45;10.15;;;6.20;;
58468;SDS011;44257;44.804;10.220;2022-11-15T15:52:11;15.00;;;7.65;;
58468;SDS011;44257;44.804;10.220;2022-11-15T15:54:37;12.27;;;7.10;;
58468;SDS011;44257;44.804;10.220;2022-11-15T15:57:04;11.02;;;5.63;;
58468;SDS011;44257;44.804;10.220;2022-11-15T15:59:31;12.10;;;6.90;;
58468;SDS011;44257;44.804;10.220;2022-11-15T16:01:57;10.43;;;5.20;;
58468;SDS011;44257;44.804;10.220;2022-11-15T16:04:24;21.33;;;9.05;;
58468;SDS011;44257;44.804;10.220;2022-11-15T16:06:49;13.85;;;7.63;;
58468;SDS011;44257;44.804;10.220;2022-11-15T16:09:18;21.00;;;11.02;;
58468;SDS011;44257;44.804;10.220;2022-11-15T16:12:07;9.20;;;6.25;;
58468;SDS011;44257;44.804;10.220;2022-11-15T16:14:33;13.02;;;6.55;;
58468;SDS011;44257;44.804;10.220;2022-11-15T16:16:59;17.65;;;7.15;;
58468;SDS011;44257;44.804;10.220;2022-11-15T16:19:25;11.35;;;6.35;;
58468;SDS011;44257;44.804;10.220;2022-11-15T16:21:51;14.35;;;7.80;;
58468;SDS011;44257;44.804;10.220;2022-11-15T16:24:17;9.90;;;6.80;;
58468;SDS011;44257;44.804;10.220;2022-11-15T16:26:44;16.05;;;8.48;;
58468;SDS011;44257;44.804;10.220;2022-11-15T16:29:12;12.10;;;6.82;;
58468;SDS011;44257;44.804;10.220;2022-11-15T16:31:37;10.23;;;6.93;;
58468;SDS011;44257;44.804;10.220;2022-11-15T16:34:03;11.82;;;5.28;;
58468;SDS011;44257;44.804;10.220;2022-11-15T16:36:30;11.38;;;5.97;;
58468;SDS011;44257;44.804;10.220;2022-11-15T16:38:58;13.30;;;7.95;;
58468;SDS011;44257;44.804;10.220;2022-11-15T16:41:25;14.13;;;6.55;;
58468;SDS011;44257;44.804;10.220;2022-11-15T16:43:51;9.82;;;5.65;;
58468;SDS011;44257;44.804;10.220;2022-11-15T16:46:21;12.57;;;6.38;;
58468;SDS011;44257;44.804;10.220;2022-11-15T16:48:49;17.55;;;6.32;;
58468;SDS011;44257;44.804;10.220;2022-11-15T16:51:15;12.18;;;7.35;;
58468;SDS011;44257;44.804;10.220;2022-11-15T16:53:41;13.68;;;6.97;;
58468;SDS011;44257;44.804;10.220;2022-11-15T16:56:27;13.43;;;7.53;;
58468;SDS011;44257;44.804;10.220;2022-11-15T16:58:55;15.40;;;7.30;;
58468;SDS011;44257;44.804;10.220;2022-11-15T17:01:32;10.65;;;5.32;;
58468;SDS011;44257;44.804;10.220;2022-11-15T17:04:13;14.35;;;7.70;;
58468;SDS011;44257;44.804;10.220;2022-11-15T17:06:41;9.45;;;5.97;;
58468;SDS011;44257;44.804;10.220;2022-11-15T17:09:18;15.52;;;7.20;;
58468;SDS011;44257;44.804;10.220;2022-11-15T17:14:16;12.80;;;7.28;;
58468;SDS011;44257;44.804;10.220;2022-11-15T17:16:42;9.95;;;4.90;;
58468;SDS011;44257;44.804;10.220;2022-11-15T17:19:16;11.93;;;6.25;;
58468;SDS011;44257;44.804;10.220;2022-11-15T17:21:44;11.25;;;5.60;;
58468;SDS011;44257;44.804;10.220;2022-11-15T17:24:10;13.02;;;7.55;;
58468;SDS011;44257;44.804;10.220;2022-11-15T17:26:37;10.10;;;5.70;;
58468;SDS011;44257;44.804;10.220;2022-11-15T17:29:03;12.98;;;6.38;;
58468;SDS011;44257;44.804;10.220;2022-11-15T17:31:32;11.60;;;5.53;;
58468;SDS011;44257;44.804;10.220;2022-11-15T17:34:02;9.10;;;5.30;;
58468;SDS011;44257;44.804;10.220;2022-11-15T17:36:29;11.15;;;5.70;;
58468;SDS011;44257;44.804;10.220;2022-11-15T17:38:55;10.82;;;4.38;;
58468;SDS011;44257;44.804;10.220;2022-11-15T17:41:21;9.52;;;4.10;;
58468;SDS011;44257;44.804;10.220;2022-11-15T17:43:47;9.75;;;6.25;;
58468;SDS011;44257;44.804;10.220;2022-11-15T17:46:14;13.15;;;6.32;;
58468;SDS011;44257;44.804;10.220;2022-11-15T17:48:42;8.93;;;6.05;;
58468;SDS011;44257;44.804;10.220;2022-11-15T17:51:09;8.70;;;5.07;;
58468;SDS011;44257;44.804;10.220;2022-11-15T17:53:38;11.23;;;4.70;;
58468;SDS011;44257;44.804;10.220;2022-11-15T17:56:06;10.10;;;6.20;;